createdAt,value
2022-12-01T00:01:14.015Z,27.85
2022-12-01T00:03:40.982Z,28.42
2022-12-01T00:06:11.510Z,28.42
2022-12-01T00:08:38.636Z,29.55
2022-12-01T00:11:11.461Z,26.77
2022-12-01T00:13:38.294Z,25.75
2022-12-01T00:16:13.440Z,28.63
2022-12-01T00:18:40.363Z,27.30
2022-12-01T00:21:13.454Z,27.77
2022-12-01T00:23:53.160Z,27.65
2022-12-01T00:26:21.197Z,27.55
2022-12-01T00:28:56.220Z,26.65
2022-12-01T00:31:23.798Z,26.95
2022-12-01T00:33:50.577Z,27.67
2022-12-01T00:36:17.807Z,25.92
2022-12-01T00:38:44.681Z,28.73
2022-12-01T00:41:11.549Z,28.33
2022-12-01T00:43:38.391Z,26.17
2022-12-01T00:46:05.456Z,27.35
2022-12-01T00:48:32.125Z,27.80
2022-12-01T00:50:59.328Z,26.35
2022-12-01T00:53:26.015Z,27.23
2022-12-01T00:55:55.813Z,28.52
2022-12-01T00:58:23.451Z,27.38
2022-12-01T01:00:58.003Z,25.88
2022-12-01T01:03:25.477Z,26.58
2022-12-01T01:05:52.232Z,26.77
2022-12-01T01:08:21.561Z,26.67
2022-12-01T01:10:48.926Z,27.92
2022-12-01T01:13:16.026Z,27.52
2022-12-01T01:15:42.890Z,26.90
2022-12-01T01:18:11.794Z,26.08
2022-12-01T01:20:38.792Z,27.70
2022-12-01T01:23:05.666Z,26.80
2022-12-01T01:25:33.216Z,26.15
2022-12-01T01:28:00.127Z,25.58
2022-12-01T01:30:27.259Z,27.20
2022-12-01T01:32:54.162Z,26.98
2022-12-01T01:35:21.283Z,24.95
2022-12-01T01:37:48.057Z,26.27
2022-12-01T01:40:14.829Z,24.45
2022-12-01T01:42:41.634Z,25.52
2022-12-01T01:45:22.380Z,25.05
2022-12-01T01:47:51.717Z,26.75
2022-12-01T01:50:21.383Z,24.67
2022-12-01T01:53:01.004Z,23.92
2022-12-01T01:55:29.288Z,24.88
2022-12-01T01:57:56.561Z,25.77
2022-12-01T02:00:23.445Z,26.10
2022-12-01T02:02:51.438Z,25.63
2022-12-01T02:05:20.631Z,24.48
2022-12-01T02:07:48.927Z,24.35
2022-12-01T02:10:22.259Z,26.67
2022-12-01T02:12:58.710Z,25.17
2022-12-01T02:15:52.394Z,27.02
2022-12-01T02:18:29.151Z,26.40
2022-12-01T02:21:10.837Z,28.73
2022-12-01T02:23:59.345Z,25.88
2022-12-01T02:26:34.847Z,24.98
2022-12-01T02:29:40.895Z,25.60
2022-12-01T02:32:35.558Z,25.30
2022-12-01T02:35:11.015Z,27.45
2022-12-01T02:37:45.694Z,26.25
2022-12-01T02:40:24.920Z,25.90
2022-12-01T02:43:03.184Z,27.55
2022-12-01T02:45:45.527Z,27.60
2022-12-01T02:48:20.444Z,29.30
2022-12-01T02:50:47.990Z,26.50
2022-12-01T02:53:18.829Z,25.73
2022-12-01T02:55:54.055Z,28.27
2022-12-01T02:58:21.809Z,27.15
2022-12-01T03:01:30.422Z,25.70
2022-12-01T03:04:09.774Z,26.90
2022-12-01T03:06:49.625Z,26.92
2022-12-01T03:09:27.484Z,28.20
2022-12-01T03:12:32.912Z,26.40
2022-12-01T03:15:08.233Z,25.98
2022-12-01T03:17:49.189Z,27.63
2022-12-01T03:20:23.545Z,27.63
2022-12-01T03:22:59.974Z,27.40
2022-12-01T03:25:29.997Z,26.65
2022-12-01T03:28:20.850Z,27.50
2022-12-01T03:30:48.031Z,26.58
2022-12-01T03:33:23.991Z,26.17
2022-12-01T03:36:06.995Z,25.50
2022-12-01T03:38:36.356Z,27.02
2022-12-01T03:41:12.178Z,26.13
2022-12-01T03:43:42.427Z,25.13
2022-12-01T03:46:33.892Z,26.00
2022-12-01T03:49:01.862Z,25.52
2022-12-01T03:51:55.952Z,26.92
2022-12-01T03:54:55.412Z,25.77
2022-12-01T03:57:29.898Z,24.85
2022-12-01T03:59:56.806Z,25.70
2022-12-01T04:02:27.636Z,24.52
2022-12-01T04:04:54.574Z,25.55
2022-12-01T04:07:22.779Z,26.17
2022-12-01T04:09:50.007Z,24.40
2022-12-01T04:12:35.053Z,25.08
2022-12-01T04:15:11.212Z,24.90
2022-12-01T04:17:45.117Z,24.45
2022-12-01T04:20:15.811Z,23.20
2022-12-01T04:22:42.592Z,24.73
2022-12-01T04:25:10.033Z,24.67
2022-12-01T04:27:37.020Z,23.90
2022-12-01T04:30:05.642Z,23.85
2022-12-01T04:32:32.578Z,25.33
2022-12-01T04:34:59.190Z,24.92
2022-12-01T04:37:25.805Z,23.77
2022-12-01T04:39:52.718Z,23.77
2022-12-01T04:42:19.601Z,25.80
2022-12-01T04:44:46.623Z,24.95
2022-12-01T04:47:13.337Z,24.17
2022-12-01T04:49:40.404Z,25.27
2022-12-01T04:52:07.480Z,25.73
2022-12-01T04:54:34.500Z,26.58
2022-12-01T04:57:01.248Z,26.67
2022-12-01T04:59:27.951Z,26.77
2022-12-01T05:01:54.720Z,26.85
2022-12-01T05:04:21.461Z,26.42
2022-12-01T05:06:48.120Z,26.85
2022-12-01T05:09:17.683Z,26.88
2022-12-01T05:11:45.042Z,25.85
2022-12-01T05:14:11.814Z,25.85
2022-12-01T05:16:38.760Z,26.88
2022-12-01T05:19:25.146Z,26.73
2022-12-01T05:21:51.982Z,26.50
2022-12-01T05:24:20.590Z,25.33
2022-12-01T05:26:47.705Z,26.35
2022-12-01T05:29:14.909Z,27.08
2022-12-01T05:31:41.830Z,26.48
2022-12-01T05:34:09.046Z,24.70
2022-12-01T05:36:36.335Z,26.13
2022-12-01T05:39:03.935Z,25.83
2022-12-01T05:41:30.733Z,25.70
2022-12-01T05:43:57.497Z,26.27
2022-12-01T05:46:24.389Z,26.75
2022-12-01T05:48:51.170Z,25.17
2022-12-01T05:51:17.993Z,26.83
2022-12-01T05:53:45.178Z,26.00
2022-12-01T05:56:12.522Z,27.42
2022-12-01T05:58:39.297Z,27.35
2022-12-01T06:01:06.430Z,26.17
2022-12-01T06:03:33.249Z,27.23
2022-12-01T06:06:00.218Z,25.95
2022-12-01T06:08:27.055Z,27.65
2022-12-01T06:10:53.759Z,28.00
2022-12-01T06:13:20.520Z,26.42
2022-12-01T06:15:56.327Z,25.77
2022-12-01T06:18:23.623Z,26.17
2022-12-01T06:20:50.230Z,26.35
2022-12-01T06:23:16.966Z,26.38
2022-12-01T06:25:43.888Z,25.52
2022-12-01T06:28:10.603Z,25.63
2022-12-01T06:30:37.446Z,26.88
2022-12-01T06:33:04.342Z,27.30
2022-12-01T06:35:31.169Z,25.65
2022-12-01T06:37:57.945Z,25.23
2022-12-01T06:40:24.806Z,26.38
2022-12-01T06:42:51.562Z,24.10
2022-12-01T06:45:18.735Z,25.33
2022-12-01T06:47:47.987Z,24.65
2022-12-01T06:50:14.744Z,24.98
2022-12-01T06:52:41.393Z,26.13
2022-12-01T06:55:08.514Z,25.33
2022-12-01T06:57:35.314Z,26.50
2022-12-01T07:00:03.758Z,25.50
2022-12-01T07:02:30.652Z,25.90
2022-12-01T07:04:57.416Z,25.25
2022-12-01T07:07:24.223Z,26.00
2022-12-01T07:09:51.218Z,27.33
2022-12-01T07:12:18.064Z,25.85
2022-12-01T07:14:45.510Z,26.30
2022-12-01T07:17:12.236Z,26.70
2022-12-01T07:19:39.057Z,24.27
2022-12-01T07:22:05.763Z,26.40
2022-12-01T07:24:32.493Z,26.70
2022-12-01T07:26:59.247Z,26.77
2022-12-01T07:29:26.070Z,26.95
2022-12-01T07:31:53.068Z,26.52
2022-12-01T07:34:20.080Z,27.42
2022-12-01T07:36:46.846Z,27.20
2022-12-01T07:39:13.622Z,27.58
2022-12-01T07:41:40.455Z,26.35
2022-12-01T07:44:09.197Z,26.33
2022-12-01T07:46:36.144Z,25.25
2022-12-01T07:49:06.021Z,27.63
2022-12-01T07:51:33.027Z,25.77
2022-12-01T07:54:03.627Z,25.25
2022-12-01T07:56:30.510Z,26.10
2022-12-01T07:58:57.318Z,25.02
2022-12-01T08:01:25.281Z,25.05
2022-12-01T08:03:55.502Z,27.40
2022-12-01T08:06:23.277Z,27.88
2022-12-01T08:08:50.304Z,29.50
2022-12-01T08:11:23.387Z,29.73
2022-12-01T08:13:51.413Z,29.75
2022-12-01T08:16:20.395Z,31.95
2022-12-01T08:18:47.409Z,31.92
2022-12-01T08:21:17.502Z,32.00
2022-12-01T08:23:44.817Z,33.28
2022-12-01T08:26:14.222Z,32.42
2022-12-01T08:28:41.915Z,32.13
2022-12-01T08:31:09.126Z,31.00
2022-12-01T08:33:35.997Z,31.30
2022-12-01T08:36:04.306Z,33.67
2022-12-01T08:38:31.302Z,31.02
2022-12-01T08:41:02.449Z,35.03
2022-12-01T08:43:55.846Z,33.28
2022-12-01T08:46:16.272Z,32.20
2022-12-01T08:48:43.217Z,34.13
2022-12-01T08:51:12.407Z,34.13
2022-12-01T08:53:45.432Z,36.10
2022-12-01T08:56:37.452Z,33.78
2022-12-01T08:59:04.495Z,32.10
2022-12-01T09:01:32.743Z,34.35
2022-12-01T09:04:10.520Z,34.35
2022-12-01T09:06:42.205Z,35.28
2022-12-01T09:09:10.949Z,33.90
2022-12-01T09:11:38.333Z,33.95
2022-12-01T09:14:05.270Z,33.83
2022-12-01T09:16:32.652Z,35.78
2022-12-01T09:18:59.466Z,36.17
2022-12-01T09:21:30.610Z,36.58
2022-12-01T09:23:57.803Z,36.63
2022-12-01T09:26:25.102Z,36.25
2022-12-01T09:28:57.613Z,35.60
2022-12-01T09:31:24.806Z,35.17
2022-12-01T09:33:57.179Z,36.63
2022-12-01T09:36:24.708Z,37.13
2022-12-01T09:38:51.595Z,38.70
2022-12-01T09:41:23.289Z,35.90
2022-12-01T09:44:20.794Z,36.45
2022-12-01T09:46:55.912Z,37.85
2022-12-01T09:49:26.147Z,35.80
2022-12-01T09:51:54.528Z,35.53
2022-12-01T09:54:21.803Z,35.03
2022-12-01T09:56:53.007Z,36.85
2022-12-01T09:59:35.431Z,37.15
2022-12-01T10:02:06.549Z,37.15
2022-12-01T10:04:44.041Z,37.05
2022-12-01T10:07:21.621Z,34.33
2022-12-01T10:10:07.998Z,36.28
2022-12-01T10:12:36.441Z,36.10
2022-12-01T10:15:26.320Z,36.17
2022-12-01T10:18:14.342Z,35.55
2022-12-01T10:20:52.240Z,35.97
2022-12-01T10:23:36.071Z,36.67
2022-12-01T10:26:16.144Z,35.70
2022-12-01T10:28:48.517Z,36.72
2022-12-01T10:31:21.350Z,37.60
2022-12-01T10:33:57.422Z,36.60
2022-12-01T10:36:25.080Z,35.85
2022-12-01T10:38:51.801Z,37.83
2022-12-01T10:41:20.318Z,35.88
2022-12-01T10:43:54.077Z,37.28
2022-12-01T10:46:41.884Z,36.58
2022-12-01T10:49:14.357Z,37.10
2022-12-01T10:51:51.058Z,37.20
2022-12-01T10:54:18.959Z,36.80
2022-12-01T10:56:48.445Z,38.17
2022-12-01T10:59:32.335Z,35.28
2022-12-01T11:02:01.075Z,36.03
2022-12-01T11:04:45.445Z,36.30
2022-12-01T11:07:16.816Z,37.25
2022-12-01T11:09:46.613Z,36.30
2022-12-01T11:12:17.870Z,35.92
2022-12-01T11:14:45.987Z,35.60
2022-12-01T11:17:24.862Z,35.90
2022-12-01T11:19:52.106Z,35.33
2022-12-01T11:22:25.302Z,33.83
2022-12-01T11:25:05.761Z,34.63
2022-12-01T11:27:47.694Z,36.30
2022-12-01T11:30:26.133Z,37.17
2022-12-01T11:33:01.510Z,33.60
2022-12-01T11:35:32.134Z,33.70
2022-12-01T11:40:55.511Z,32.78
2022-12-01T11:43:35.467Z,32.10
2022-12-01T11:46:06.355Z,32.83
2022-12-01T11:48:35.356Z,32.10
2022-12-01T11:51:07.914Z,29.65
2022-12-01T11:53:37.792Z,32.42
2022-12-01T11:56:28.972Z,27.35
2022-12-01T11:59:04.842Z,28.08
2022-12-01T12:02:12.309Z,28.67
2022-12-01T12:04:58.374Z,27.45
2022-12-01T12:08:04.620Z,27.10
2022-12-01T12:10:56.188Z,26.85
2022-12-01T12:13:23.146Z,28.10
2022-12-01T12:16:27.528Z,26.73
2022-12-01T12:19:25.390Z,27.23
2022-12-01T12:22:41.737Z,26.67
2022-12-01T12:25:42.588Z,27.33
2022-12-01T12:28:31.117Z,26.92
2022-12-01T12:31:11.606Z,28.33
2022-12-01T12:33:53.086Z,27.17
2022-12-01T12:36:58.339Z,28.35
2022-12-01T12:39:43.798Z,28.67
2022-12-01T12:42:27.845Z,27.00
2022-12-01T12:45:04.553Z,26.65
2022-12-01T12:47:40.761Z,25.98
2022-12-01T12:50:20.595Z,26.30
2022-12-01T12:52:51.397Z,25.98
2022-12-01T12:55:38.879Z,25.67
2022-12-01T12:58:24.216Z,26.85
2022-12-01T13:01:03.384Z,27.33
2022-12-01T13:03:41.871Z,27.23
2022-12-01T13:06:34.383Z,28.60
2022-12-01T13:09:04.309Z,27.77
2022-12-01T13:11:41.802Z,26.83
2022-12-01T13:14:20.016Z,26.48
2022-12-01T13:16:49.471Z,25.92
2022-12-01T13:19:38.965Z,25.92
2022-12-01T13:22:07.837Z,25.88
2022-12-01T13:24:34.691Z,25.50
2022-12-01T13:27:14.088Z,25.45
2022-12-01T13:29:47.472Z,25.23
2022-12-01T13:32:43.813Z,26.30
2022-12-01T13:36:21.271Z,26.85
2022-12-01T13:38:40.467Z,25.33
2022-12-01T13:41:11.225Z,26.42
2022-12-01T13:43:49.255Z,26.42
2022-12-01T13:46:25.470Z,28.25
2022-12-01T13:48:57.709Z,26.50
2022-12-01T13:51:26.017Z,26.90
2022-12-01T13:54:05.385Z,28.35
2022-12-01T13:57:05.002Z,26.75
2022-12-01T13:59:41.051Z,25.95
2022-12-01T14:02:21.488Z,26.63
2022-12-01T14:04:48.944Z,25.38
2022-12-01T14:07:21.565Z,26.23
2022-12-01T14:09:51.898Z,25.83
2022-12-01T14:12:30.124Z,25.67
2022-12-01T14:15:01.200Z,25.73
2022-12-01T14:17:37.687Z,24.58
2022-12-01T14:20:20.539Z,24.83
2022-12-01T14:25:19.839Z,24.10
2022-12-01T14:27:52.094Z,24.65
2022-12-01T14:30:51.708Z,26.52
2022-12-01T14:33:42.856Z,25.25
2022-12-01T14:36:28.528Z,25.88
2022-12-01T14:38:58.194Z,25.40
2022-12-01T14:41:32.308Z,26.55
2022-12-01T14:44:10.719Z,25.10
2022-12-01T14:46:45.949Z,24.48
2022-12-01T14:49:24.116Z,25.50
2022-12-01T14:51:57.733Z,25.10
2022-12-01T14:54:30.023Z,24.48
2022-12-01T14:57:06.270Z,26.30
2022-12-01T14:59:34.941Z,24.75
2022-12-01T15:02:09.504Z,24.38
2022-12-01T15:05:11.139Z,25.52
2022-12-01T15:07:43.716Z,23.85
2022-12-01T15:12:45.476Z,24.13
2022-12-01T15:15:23.921Z,23.50
2022-12-01T15:17:53.126Z,23.92
2022-12-01T15:20:34.745Z,24.42
2022-12-01T15:23:08.045Z,25.35
2022-12-01T15:25:36.997Z,24.08
2022-12-01T15:28:10.419Z,24.48
2022-12-01T15:30:37.395Z,27.88
2022-12-01T15:33:05.479Z,29.23
2022-12-01T15:35:32.717Z,32.30
2022-12-01T15:38:01.088Z,31.73
2022-12-01T15:43:35.071Z,28.73
2022-12-01T15:46:11.482Z,27.90
2022-12-01T15:48:38.453Z,27.17
2022-12-01T15:51:17.047Z,27.70
2022-12-01T15:53:55.490Z,25.88
2022-12-01T15:56:52.345Z,23.08
2022-12-01T15:59:40.553Z,24.73
2022-12-01T16:02:32.307Z,24.27
2022-12-01T16:05:20.281Z,23.33
2022-12-01T16:08:12.771Z,24.30
2022-12-01T16:10:36.474Z,24.58
2022-12-01T16:13:40.729Z,24.95
2022-12-01T16:16:47.067Z,24.30
2022-12-01T16:19:16.479Z,24.50
2022-12-01T16:21:50.521Z,24.35
2022-12-01T16:24:19.532Z,25.60
2022-12-01T16:26:57.163Z,24.35
2022-12-01T16:29:26.273Z,24.88
2022-12-01T16:34:47.699Z,26.10
2022-12-01T16:37:15.243Z,27.33
2022-12-01T16:39:42.343Z,26.65
2022-12-01T16:42:17.242Z,25.80
2022-12-01T16:44:48.085Z,27.13
2022-12-01T16:47:33.301Z,26.60
2022-12-01T16:50:00.070Z,27.13
2022-12-01T16:52:44.620Z,29.40
2022-12-01T16:55:33.114Z,25.55
2022-12-01T16:57:59.782Z,26.63
2022-12-01T17:00:27.369Z,26.25
2022-12-01T17:02:54.364Z,26.13
2022-12-01T17:05:21.558Z,25.42
2022-12-01T17:07:48.567Z,27.02
2022-12-01T17:10:16.034Z,24.88
2022-12-01T17:12:42.865Z,25.92
2022-12-01T17:15:10.528Z,23.80
2022-12-01T17:17:37.537Z,24.77
2022-12-01T17:20:05.914Z,26.00
2022-12-01T17:22:33.139Z,26.58
2022-12-01T17:25:02.368Z,26.17
2022-12-01T17:27:31.570Z,26.23
2022-12-01T17:29:59.807Z,26.98
2022-12-01T17:32:27.436Z,25.70
2022-12-01T17:34:54.440Z,25.70
2022-12-01T17:37:21.845Z,24.48
2022-12-01T17:39:49.326Z,23.38
2022-12-01T17:42:16.454Z,24.58
2022-12-01T17:44:43.159Z,25.10
2022-12-01T17:47:10.108Z,24.13
2022-12-01T17:49:37.109Z,27.27
2022-12-01T17:52:05.266Z,23.20
2022-12-01T17:54:32.161Z,24.27
2022-12-01T17:56:59.031Z,24.20
2022-12-01T17:59:26.272Z,24.17
2022-12-01T18:01:53.166Z,23.42
2022-12-01T18:04:19.825Z,26.30
2022-12-01T18:06:52.307Z,25.65
2022-12-01T18:09:20.683Z,25.75
2022-12-01T18:11:47.568Z,25.73
2022-12-01T18:14:17.666Z,25.92
2022-12-01T18:16:45.055Z,26.58
2022-12-01T18:19:11.924Z,25.00
2022-12-01T18:21:39.278Z,26.38
2022-12-01T18:24:08.753Z,25.42
2022-12-01T18:26:36.874Z,26.27
2022-12-01T18:29:06.654Z,26.67
2022-12-01T18:31:34.021Z,27.05
2022-12-01T18:34:03.056Z,26.70
2022-12-01T18:36:32.010Z,28.10
2022-12-01T18:39:00.319Z,28.73
2022-12-01T18:41:27.483Z,27.90
2022-12-01T18:43:54.606Z,29.45
2022-12-01T18:46:22.323Z,27.60
2022-12-01T18:48:59.351Z,32.28
2022-12-01T18:51:26.293Z,28.85
2022-12-01T18:54:01.134Z,26.55
2022-12-01T18:56:29.388Z,28.00
2022-12-01T18:58:58.001Z,26.05
2022-12-01T19:01:27.771Z,25.63
2022-12-01T19:03:55.794Z,26.23
2022-12-01T19:06:23.311Z,27.55
2022-12-01T19:08:50.370Z,26.13
2022-12-01T19:11:17.596Z,28.20
2022-12-01T19:13:44.992Z,26.00
2022-12-01T19:16:17.815Z,27.08
2022-12-01T19:18:45.193Z,26.20
2022-12-01T19:21:14.459Z,25.85
2022-12-01T19:23:41.202Z,26.00
2022-12-01T19:26:11.914Z,26.77
2022-12-01T19:28:42.046Z,28.00
2022-12-01T19:31:11.212Z,26.25
2022-12-01T19:33:38.489Z,25.73
2022-12-01T19:36:11.422Z,26.75
2022-12-01T19:38:38.678Z,29.05
2022-12-01T19:41:06.238Z,27.58
2022-12-01T19:43:37.497Z,27.50
2022-12-01T19:46:15.455Z,26.95
2022-12-01T19:48:42.843Z,27.38
2022-12-01T19:51:21.460Z,28.08
2022-12-01T19:53:48.763Z,28.40
2022-12-01T19:56:15.845Z,28.98
2022-12-01T19:58:42.914Z,27.75
2022-12-01T20:01:12.218Z,29.42
2022-12-01T20:03:40.634Z,29.67
2022-12-01T20:06:13.206Z,28.70
2022-12-01T20:08:40.297Z,28.63
2022-12-01T20:11:07.906Z,27.95
2022-12-01T20:13:36.522Z,30.00
2022-12-01T20:16:09.705Z,28.75
2022-12-01T20:18:37.510Z,27.35
2022-12-01T20:21:16.719Z,29.63
2022-12-01T20:23:45.005Z,29.38
2022-12-01T20:26:12.822Z,27.55
2022-12-01T20:28:40.533Z,27.75
2022-12-01T20:31:14.620Z,29.45
2022-12-01T20:33:42.342Z,29.50
2022-12-01T20:36:09.887Z,29.63
2022-12-01T20:38:37.294Z,28.33
2022-12-01T20:41:05.523Z,28.45
2022-12-01T20:43:32.872Z,28.88
2022-12-01T20:46:00.364Z,28.02
2022-12-01T20:48:27.716Z,28.98
2022-12-01T20:50:54.511Z,28.77
2022-12-01T20:53:21.620Z,28.63
2022-12-01T20:55:49.261Z,27.33
2022-12-01T20:58:15.934Z,28.73
2022-12-01T21:00:46.770Z,27.92
2022-12-01T21:03:14.348Z,29.00
2022-12-01T21:05:43.242Z,29.00
2022-12-01T21:08:13.071Z,28.17
2022-12-01T21:10:43.702Z,28.30
2022-12-01T21:13:41.087Z,28.63
2022-12-01T21:16:16.626Z,29.48
2022-12-01T21:18:52.158Z,30.85
2022-12-01T21:21:24.777Z,29.88
2022-12-01T21:26:38.719Z,29.38
2022-12-01T21:29:25.529Z,29.25
2022-12-01T21:32:02.958Z,29.63
2022-12-01T21:34:33.452Z,30.23
2022-12-01T21:37:02.402Z,29.35
2022-12-01T21:39:30.138Z,28.55
2022-12-01T21:42:06.426Z,29.20
2022-12-01T21:44:37.412Z,28.92
2022-12-01T21:47:17.289Z,30.17
2022-12-01T21:49:46.998Z,29.77
2022-12-01T21:52:29.942Z,29.65
2022-12-01T21:55:02.181Z,31.30
2022-12-01T21:57:52.342Z,30.30
2022-12-01T22:00:34.887Z,30.92
2022-12-01T22:03:27.324Z,28.58
2022-12-01T22:06:28.748Z,29.48
2022-12-01T22:08:55.227Z,28.77
2022-12-01T22:11:25.836Z,30.60
2022-12-01T22:14:00.699Z,31.40
2022-12-01T22:16:32.490Z,30.45
2022-12-01T22:19:02.169Z,31.93
2022-12-01T22:21:46.831Z,32.22
2022-12-01T22:24:50.128Z,31.85
2022-12-01T22:27:28.732Z,29.48
2022-12-01T22:30:07.360Z,32.65
2022-12-01T22:32:35.880Z,30.95
2022-12-01T22:35:14.537Z,32.05
2022-12-01T22:37:46.546Z,32.80
2022-12-01T22:40:34.521Z,32.83
2022-12-01T22:43:29.301Z,34.08
2022-12-01T22:46:20.466Z,31.80
2022-12-01T22:49:03.992Z,31.75
2022-12-01T22:51:45.711Z,33.03
2022-12-01T22:54:14.587Z,32.58
2022-12-01T22:56:56.419Z,32.05
2022-12-01T22:59:28.294Z,32.90
2022-12-01T23:01:57.509Z,31.27
2022-12-01T23:04:27.282Z,31.15
2022-12-01T23:07:01.891Z,33.08
2022-12-01T23:09:34.220Z,32.42
2022-12-01T23:12:10.051Z,32.45
2022-12-01T23:14:44.350Z,31.75
2022-12-01T23:17:19.428Z,31.50
2022-12-01T23:19:46.582Z,34.05
2022-12-01T23:22:15.291Z,34.17
2022-12-01T23:24:41.978Z,35.03
2022-12-01T23:27:08.639Z,33.55
2022-12-01T23:29:36.217Z,32.45
2022-12-01T23:32:03.014Z,35.95
2022-12-01T23:34:30.152Z,34.53
2022-12-01T23:36:57.442Z,35.67
2022-12-01T23:39:32.242Z,37.40
2022-12-01T23:41:59.625Z,39.35
2022-12-01T23:44:49.648Z,37.80
2022-12-01T23:47:24.644Z,40.45
2022-12-01T23:49:59.423Z,36.83
2022-12-01T23:52:32.137Z,41.35
2022-12-01T23:57:25.782Z,36.75
2022-12-01T23:59:56.579Z,41.72
